sensor_id;sensor_type;location;lat;lon;timestamp;P1;P2;P0
61542;PMS5003;47414;43.168;44.812;2022-12-18T00:04:56;23.75;22.25;16.25
61542;PMS5003;47414;43.168;44.812;2022-12-18T00:09:56;20.50;20.50;12.00
61542;PMS5003;47414;43.168;44.812;2022-12-18T00:14:58;19.75;19.50;13.50
61542;PMS5003;47414;43.168;44.812;2022-12-18T00:19:59;14.00;12.50;9.75
61542;PMS5003;47414;43.168;44.812;2022-12-18T00:24:59;15.25;15.25;9.25
61542;PMS5003;47414;43.168;44.812;2022-12-18T00:30:01;16.00;16.00;12.00
61542;PMS5003;47414;43.168;44.812;2022-12-18T00:35:02;23.75;19.50;13.00
61542;PMS5003;47414;43.168;44.812;2022-12-18T00:40:02;17.00;17.00;9.25
61542;PMS5003;47414;43.168;44.812;2022-12-18T00:45:05;14.25;12.25;9.00
61542;PMS5003;47414;43.168;44.812;2022-12-18T00:50:06;20.00;18.00;10.00
61542;PMS5003;47414;43.168;44.812;2022-12-18T00:55:07;17.50;15.50;9.25
61542;PMS5003;47414;43.168;44.812;2022-12-18T01:00:10;17.75;15.75;10.00
61542;PMS5003;47414;43.168;44.812;2022-12-18T01:05:11;12.75;12.25;8.00
61542;PMS5003;47414;43.168;44.812;2022-12-18T01:10:12;9.75;9.75;7.00
61542;PMS5003;47414;43.168;44.812;2022-12-18T01:15:15;12.25;10.50;7.50
61542;PMS5003;47414;43.168;44.812;2022-12-18T01:20:16;7.00;7.00;5.00
61542;PMS5003;47414;43.168;44.812;2022-12-18T01:25:16;11.50;10.50;6.00
61542;PMS5003;47414;43.168;44.812;2022-12-18T01:30:18;13.00;12.25;8.00
61542;PMS5003;47414;43.168;44.812;2022-12-18T01:35:19;13.00;12.75;8.25
61542;PMS5003;47414;43.168;44.812;2022-12-18T01:40:19;13.25;13.25;8.50
61542;PMS5003;47414;43.168;44.812;2022-12-18T01:45:25;12.00;12.00;8.00
61542;PMS5003;47414;43.168;44.812;2022-12-18T01:50:28;9.50;9.00;6.00
61542;PMS5003;47414;43.168;44.812;2022-12-18T01:55:31;12.25;11.25;7.50
61542;PMS5003;47414;43.168;44.812;2022-12-18T02:00:34;9.25;9.25;8.00
61542;PMS5003;47414;43.168;44.812;2022-12-18T02:05:37;13.00;13.00;9.50
61542;PMS5003;47414;43.168;44.812;2022-12-18T02:10:42;14.75;14.50;10.00
61542;PMS5003;47414;43.168;44.812;2022-12-18T02:15:49;16.25;16.25;9.25
61542;PMS5003;47414;43.168;44.812;2022-12-18T02:20:52;17.00;15.50;10.50
61542;PMS5003;47414;43.168;44.812;2022-12-18T02:26:01;13.00;13.00;10.00
61542;PMS5003;47414;43.168;44.812;2022-12-18T02:31:05;15.25;13.50;9.25
61542;PMS5003;47414;43.168;44.812;2022-12-18T02:36:08;16.75;16.75;12.00
61542;PMS5003;47414;43.168;44.812;2022-12-18T02:41:11;20.50;20.25;11.00
61542;PMS5003;47414;43.168;44.812;2022-12-18T02:46:22;18.25;17.00;10.00
61542;PMS5003;47414;43.168;44.812;2022-12-18T02:51:27;20.00;17.00;11.00
61542;PMS5003;47414;43.168;44.812;2022-12-18T02:56:31;16.50;16.00;12.00
61542;PMS5003;47414;43.168;44.812;2022-12-18T03:01:34;14.50;12.75;5.75
61542;PMS5003;47414;43.168;44.812;2022-12-18T03:06:39;25.00;24.25;15.25
61542;PMS5003;47414;43.168;44.812;2022-12-18T03:11:44;22.00;20.50;13.50
61542;PMS5003;47414;43.168;44.812;2022-12-18T03:16:47;25.00;22.75;14.00
61542;PMS5003;47414;43.168;44.812;2022-12-18T03:21:51;17.75;17.50;13.00
61542;PMS5003;47414;43.168;44.812;2022-12-18T03:26:55;15.00;14.50;11.50
61542;PMS5003;47414;43.168;44.812;2022-12-18T03:31:58;18.00;17.00;12.75
61542;PMS5003;47414;43.168;44.812;2022-12-18T03:37:02;22.25;21.25;12.25
61542;PMS5003;47414;43.168;44.812;2022-12-18T03:42:05;30.25;29.00;20.75
61542;PMS5003;47414;43.168;44.812;2022-12-18T03:47:07;31.00;27.50;20.00
61542;PMS5003;47414;43.168;44.812;2022-12-18T03:52:11;26.25;25.25;17.50
61542;PMS5003;47414;43.168;44.812;2022-12-18T03:57:15;25.00;23.75;16.00
61542;PMS5003;47414;43.168;44.812;2022-12-18T04:02:17;24.75;23.25;16.25
61542;PMS5003;47414;43.168;44.812;2022-12-18T04:07:18;24.75;23.50;15.50
61542;PMS5003;47414;43.168;44.812;2022-12-18T04:12:20;17.25;17.25;12.50
61542;PMS5003;47414;43.168;44.812;2022-12-18T04:17:21;15.75;13.50;9.25
61542;PMS5003;47414;43.168;44.812;2022-12-18T04:22:21;16.00;16.00;9.75
61542;PMS5003;47414;43.168;44.812;2022-12-18T04:27:23;10.25;8.50;6.00
61542;PMS5003;47414;43.168;44.812;2022-12-18T04:32:24;8.00;8.00;6.00
61542;PMS5003;47414;43.168;44.812;2022-12-18T04:37:24;8.25;8.25;6.00
61542;PMS5003;47414;43.168;44.812;2022-12-18T04:42:26;12.00;10.00;9.00
61542;PMS5003;47414;43.168;44.812;2022-12-18T04:47:27;10.00;9.75;7.50
61542;PMS5003;47414;43.168;44.812;2022-12-18T04:52:27;10.25;10.25;8.00
61542;PMS5003;47414;43.168;44.812;2022-12-18T04:57:29;9.00;9.00;8.00
61542;PMS5003;47414;43.168;44.812;2022-12-18T05:02:30;13.25;13.00;9.50
61542;PMS5003;47414;43.168;44.812;2022-12-18T05:07:30;14.50;14.50;9.00
61542;PMS5003;47414;43.168;44.812;2022-12-18T05:12:32;14.00;12.00;8.75
61542;PMS5003;47414;43.168;44.812;2022-12-18T05:17:33;13.25;13.25;9.00
61542;PMS5003;47414;43.168;44.812;2022-12-18T05:22:33;10.75;8.75;5.50
61542;PMS5003;47414;43.168;44.812;2022-12-18T05:27:35;13.00;12.50;8.50
61542;PMS5003;47414;43.168;44.812;2022-12-18T05:32:35;28.50;26.75;18.25
61542;PMS5003;47414;43.168;44.812;2022-12-18T05:37:36;24.50;23.50;15.25
61542;PMS5003;47414;43.168;44.812;2022-12-18T05:42:38;5.00;5.00;4.00
61542;PMS5003;47414;43.168;44.812;2022-12-18T05:47:38;19.50;18.00;13.25
61542;PMS5003;47414;43.168;44.812;2022-12-18T05:52:39;12.25;11.50;8.50
61542;PMS5003;47414;43.168;44.812;2022-12-18T05:57:41;8.00;8.00;6.00
61542;PMS5003;47414;43.168;44.812;2022-12-18T06:02:41;19.75;18.75;13.75
61542;PMS5003;47414;43.168;44.812;2022-12-18T06:07:42;18.00;17.75;13.75
61542;PMS5003;47414;43.168;44.812;2022-12-18T06:12:44;11.00;11.00;9.25
61542;PMS5003;47414;43.168;44.812;2022-12-18T06:17:44;9.00;9.00;7.25
61542;PMS5003;47414;43.168;44.812;2022-12-18T06:22:45;7.75;7.75;4.75
61542;PMS5003;47414;43.168;44.812;2022-12-18T06:27:48;11.25;9.25;7.50
61542;PMS5003;47414;43.168;44.812;2022-12-18T06:32:48;70.00;56.67;42.00
61542;PMS5003;47414;43.168;44.812;2022-12-18T06:37:49;11.50;11.25;8.50
61542;PMS5003;47414;43.168;44.812;2022-12-18T06:42:51;49.25;41.75;28.00
61542;PMS5003;47414;43.168;44.812;2022-12-18T06:47:51;13.00;13.00;9.25
61542;PMS5003;47414;43.168;44.812;2022-12-18T06:52:52;5.50;5.50;4.00
61542;PMS5003;47414;43.168;44.812;2022-12-18T06:57:54;12.75;12.75;9.25
61542;PMS5003;47414;43.168;44.812;2022-12-18T07:02:54;13.00;13.00;11.25
61542;PMS5003;47414;43.168;44.812;2022-12-18T07:07:55;16.25;16.00;11.00
61542;PMS5003;47414;43.168;44.812;2022-12-18T07:12:57;18.25;17.50;14.00
61542;PMS5003;47414;43.168;44.812;2022-12-18T07:17:57;12.00;11.00;7.00
61542;PMS5003;47414;43.168;44.812;2022-12-18T07:22:58;10.00;9.00;6.00
61542;PMS5003;47414;43.168;44.812;2022-12-18T07:28:00;9.50;9.25;7.00
61542;PMS5003;47414;43.168;44.812;2022-12-18T07:33:00;6.25;6.25;4.75
61542;PMS5003;47414;43.168;44.812;2022-12-18T07:38:01;9.00;8.00;4.75
61542;PMS5003;47414;43.168;44.812;2022-12-18T07:43:03;6.75;6.50;4.00
61542;PMS5003;47414;43.168;44.812;2022-12-18T07:48:03;6.00;6.00;4.00
61542;PMS5003;47414;43.168;44.812;2022-12-18T07:53:04;7.50;6.00;5.00
61542;PMS5003;47414;43.168;44.812;2022-12-18T07:58:06;6.50;6.50;5.00
61542;PMS5003;47414;43.168;44.812;2022-12-18T08:03:07;17.75;16.00;10.75
61542;PMS5003;47414;43.168;44.812;2022-12-18T08:08:07;18.75;18.00;10.00
61542;PMS5003;47414;43.168;44.812;2022-12-18T08:13:09;18.75;18.25;11.25
61542;PMS5003;47414;43.168;44.812;2022-12-18T08:18:10;18.25;17.25;12.50
61542;PMS5003;47414;43.168;44.812;2022-12-18T08:23:10;9.00;9.00;8.25
61542;PMS5003;47414;43.168;44.812;2022-12-18T08:28:12;21.50;19.75;14.00
61542;PMS5003;47414;43.168;44.812;2022-12-18T08:33:12;13.25;13.25;9.75
61542;PMS5003;47414;43.168;44.812;2022-12-18T08:38:13;15.75;14.50;9.50
61542;PMS5003;47414;43.168;44.812;2022-12-18T08:43:15;18.25;15.50;9.50
61542;PMS5003;47414;43.168;44.812;2022-12-18T08:48:15;13.00;12.25;9.25
61542;PMS5003;47414;43.168;44.812;2022-12-18T08:53:16;14.50;13.25;8.75
61542;PMS5003;47414;43.168;44.812;2022-12-18T08:58:18;11.25;11.25;7.00
61542;PMS5003;47414;43.168;44.812;2022-12-18T09:03:19;14.50;14.00;9.25
61542;PMS5003;47414;43.168;44.812;2022-12-18T09:08:19;13.00;13.00;8.25
61542;PMS5003;47414;43.168;44.812;2022-12-18T09:13:21;13.25;12.25;9.00
61542;PMS5003;47414;43.168;44.812;2022-12-18T09:18:22;16.00;14.00;10.00
61542;PMS5003;47414;43.168;44.812;2022-12-18T09:23:23;15.25;14.50;10.75
61542;PMS5003;47414;43.168;44.812;2022-12-18T09:28:25;14.50;14.50;9.75
61542;PMS5003;47414;43.168;44.812;2022-12-18T09:33:25;24.00;20.50;13.50
61542;PMS5003;47414;43.168;44.812;2022-12-18T09:38:26;21.75;20.50;13.50
61542;PMS5003;47414;43.168;44.812;2022-12-18T09:43:29;29.75;27.50;18.50
61542;PMS5003;47414;43.168;44.812;2022-12-18T09:48:31;35.00;32.50;23.50
61542;PMS5003;47414;43.168;44.812;2022-12-18T09:53:33;48.25;39.75;29.00
61542;PMS5003;47414;43.168;44.812;2022-12-18T09:58:38;43.50;38.50;27.25
61542;PMS5003;47414;43.168;44.812;2022-12-18T10:03:40;45.50;38.25;27.50
61542;PMS5003;47414;43.168;44.812;2022-12-18T10:08:42;43.50;37.75;27.25
61542;PMS5003;47414;43.168;44.812;2022-12-18T10:13:46;39.50;34.75;23.25
61542;PMS5003;47414;43.168;44.812;2022-12-18T10:18:55;33.00;31.25;23.00
61542;PMS5003;47414;43.168;44.812;2022-12-18T10:24:00;35.50;33.00;22.75
61542;PMS5003;47414;43.168;44.812;2022-12-18T10:29:06;28.50;26.75;19.25
61542;PMS5003;47414;43.168;44.812;2022-12-18T10:34:09;19.25;19.25;14.50
61542;PMS5003;47414;43.168;44.812;2022-12-18T10:39:16;14.25;13.00;9.25
61542;PMS5003;47414;43.168;44.812;2022-12-18T10:44:18;13.75;13.25;9.25
61542;PMS5003;47414;43.168;44.812;2022-12-18T10:49:19;11.25;11.00;10.25
61542;PMS5003;47414;43.168;44.812;2022-12-18T10:54:21;21.75;20.50;15.75
61542;PMS5003;47414;43.168;44.812;2022-12-18T10:59:24;28.25;27.50;21.00
61542;PMS5003;47414;43.168;44.812;2022-12-18T11:04:25;31.00;29.25;20.75
61542;PMS5003;47414;43.168;44.812;2022-12-18T11:09:29;44.75;36.25;24.50
61542;PMS5003;47414;43.168;44.812;2022-12-18T11:14:32;46.75;39.50;27.00
61542;PMS5003;47414;43.168;44.812;2022-12-18T11:19:34;36.50;33.25;20.50
61542;PMS5003;47414;43.168;44.812;2022-12-18T11:24:35;46.00;37.75;25.25
61542;PMS5003;47414;43.168;44.812;2022-12-18T11:29:38;47.25;40.00;27.75
61542;PMS5003;47414;43.168;44.812;2022-12-18T11:34:39;50.75;42.25;29.25
61542;PMS5003;47414;43.168;44.812;2022-12-18T11:39:42;52.25;42.25;27.50
61542;PMS5003;47414;43.168;44.812;2022-12-18T11:44:48;51.50;41.75;28.25
61542;PMS5003;47414;43.168;44.812;2022-12-18T11:49:50;44.50;38.75;25.00
61542;PMS5003;47414;43.168;44.812;2022-12-18T11:54:51;54.25;43.50;29.25
61542;PMS5003;47414;43.168;44.812;2022-12-18T11:59:55;53.50;44.00;28.75
61542;PMS5003;47414;43.168;44.812;2022-12-18T12:05:03;49.50;42.50;28.25
61542;PMS5003;47414;43.168;44.812;2022-12-18T12:10:16;78.67;68.33;45.00
61542;PMS5003;47414;43.168;44.812;2022-12-18T12:15:27;59.75;48.50;31.50
61542;PMS5003;47414;43.168;44.812;2022-12-18T12:20:33;49.50;41.50;30.50
61542;PMS5003;47414;43.168;44.812;2022-12-18T12:25:39;49.75;42.00;30.00
61542;PMS5003;47414;43.168;44.812;2022-12-18T12:30:48;55.25;46.00;30.00
61542;PMS5003;47414;43.168;44.812;2022-12-18T12:35:52;58.75;47.00;32.25
61542;PMS5003;47414;43.168;44.812;2022-12-18T12:40:57;62.75;51.50;34.25
61542;PMS5003;47414;43.168;44.812;2022-12-18T12:46:05;61.00;50.50;35.75
61542;PMS5003;47414;43.168;44.812;2022-12-18T12:51:08;59.50;47.50;32.50
61542;PMS5003;47414;43.168;44.812;2022-12-18T12:56:10;62.67;50.33;35.33
61542;PMS5003;47414;43.168;44.812;2022-12-18T13:01:14;64.67;52.33;37.00
61542;PMS5003;47414;43.168;44.812;2022-12-18T13:06:18;71.00;56.00;37.00
61542;PMS5003;47414;43.168;44.812;2022-12-18T13:11:31;72.67;59.33;38.67
61542;PMS5003;47414;43.168;44.812;2022-12-18T13:16:34;76.33;62.33;43.00
61542;PMS5003;47414;43.168;44.812;2022-12-18T13:21:34;74.00;58.33;40.00
61542;PMS5003;47414;43.168;44.812;2022-12-18T13:26:35;82.67;70.67;49.67
61542;PMS5003;47414;43.168;44.812;2022-12-18T13:42:41;81.00;69.00;45.33
61542;PMS5003;47414;43.168;44.812;2022-12-18T13:47:41;78.00;67.67;46.00
61542;PMS5003;47414;43.168;44.812;2022-12-18T13:52:43;81.67;68.33;48.00
61542;PMS5003;47414;43.168;44.812;2022-12-18T13:57:45;78.00;63.67;45.00
61542;PMS5003;47414;43.168;44.812;2022-12-18T14:02:46;72.33;58.67;38.33
61542;PMS5003;47414;43.168;44.812;2022-12-18T14:07:46;67.33;55.67;37.00
61542;PMS5003;47414;43.168;44.812;2022-12-18T14:12:48;70.00;56.00;37.33
61542;PMS5003;47414;43.168;44.812;2022-12-18T14:17:50;67.00;55.00;38.00
61542;PMS5003;47414;43.168;44.812;2022-12-18T14:22:50;67.00;54.33;37.67
61542;PMS5003;47414;43.168;44.812;2022-12-18T14:27:53;66.67;54.00;36.00
61542;PMS5003;47414;43.168;44.812;2022-12-18T14:33:03;66.67;53.00;37.33
61542;PMS5003;47414;43.168;44.812;2022-12-18T14:38:11;73.67;59.00;39.67
61542;PMS5003;47414;43.168;44.812;2022-12-18T14:43:16;70.67;58.00;38.33
61542;PMS5003;47414;43.168;44.812;2022-12-18T14:48:17;75.00;59.00;37.67
61542;PMS5003;47414;43.168;44.812;2022-12-18T14:53:20;73.33;58.00;38.00
61542;PMS5003;47414;43.168;44.812;2022-12-18T14:58:22;71.67;57.33;38.00
61542;PMS5003;47414;43.168;44.812;2022-12-18T15:03:23;65.00;54.67;35.67
61542;PMS5003;47414;43.168;44.812;2022-12-18T15:08:27;66.00;55.00;36.33
61542;PMS5003;47414;43.168;44.812;2022-12-18T15:13:30;67.67;55.33;39.33
61542;PMS5003;47414;43.168;44.812;2022-12-18T15:18:31;56.75;48.00;37.00
61542;PMS5003;47414;43.168;44.812;2022-12-18T15:23:34;63.00;51.33;35.00
61542;PMS5003;47414;43.168;44.812;2022-12-18T15:28:37;54.00;46.00;31.75
61542;PMS5003;47414;43.168;44.812;2022-12-18T15:33:39;54.00;42.50;29.00
61542;PMS5003;47414;43.168;44.812;2022-12-18T15:38:40;34.50;33.25;22.50
61542;PMS5003;47414;43.168;44.812;2022-12-18T15:43:42;31.50;31.25;22.00
61542;PMS5003;47414;43.168;44.812;2022-12-18T15:48:43;37.75;35.25;24.50
61542;PMS5003;47414;43.168;44.812;2022-12-18T15:53:43;36.50;34.50;22.50
61542;PMS5003;47414;43.168;44.812;2022-12-18T15:58:46;37.00;35.00;23.00
61542;PMS5003;47414;43.168;44.812;2022-12-18T16:03:46;37.50;35.50;24.00
61542;PMS5003;47414;43.168;44.812;2022-12-18T16:08:47;44.00;39.25;27.00
61542;PMS5003;47414;43.168;44.812;2022-12-18T16:13:49;42.00;38.00;25.25
61542;PMS5003;47414;43.168;44.812;2022-12-18T16:18:49;36.00;34.00;22.50
61542;PMS5003;47414;43.168;44.812;2022-12-18T16:23:50;27.50;26.25;17.50
61542;PMS5003;47414;43.168;44.812;2022-12-18T16:28:52;28.00;26.50;17.00
61542;PMS5003;47414;43.168;44.812;2022-12-18T16:39:07;27.25;26.50;19.25
61542;PMS5003;47414;43.168;44.812;2022-12-18T16:44:09;19.75;17.00;11.50
61542;PMS5003;47414;43.168;44.812;2022-12-18T16:49:10;24.00;22.25;15.00
61542;PMS5003;47414;43.168;44.812;2022-12-18T16:54:10;27.50;25.25;18.00
61542;PMS5003;47414;43.168;44.812;2022-12-18T16:59:12;28.50;25.50;17.00
61542;PMS5003;47414;43.168;44.812;2022-12-18T17:04:13;23.00;20.75;15.25
61542;PMS5003;47414;43.168;44.812;2022-12-18T17:09:14;27.00;25.75;17.00
61542;PMS5003;47414;43.168;44.812;2022-12-18T17:14:17;21.25;21.00;15.50
61542;PMS5003;47414;43.168;44.812;2022-12-18T17:19:17;19.00;18.25;11.50
61542;PMS5003;47414;43.168;44.812;2022-12-18T17:24:18;14.75;12.50;9.75
61542;PMS5003;47414;43.168;44.812;2022-12-18T17:29:20;14.75;14.50;9.75
61542;PMS5003;47414;43.168;44.812;2022-12-18T17:34:21;11.00;10.50;9.00
61542;PMS5003;47414;43.168;44.812;2022-12-18T17:39:21;8.75;8.75;6.00
61542;PMS5003;47414;43.168;44.812;2022-12-18T17:44:23;10.75;9.25;5.00
61542;PMS5003;47414;43.168;44.812;2022-12-18T17:49:24;5.25;5.00;4.00
61542;PMS5003;47414;43.168;44.812;2022-12-18T17:54:24;1.00;1.00;1.00
61542;PMS5003;47414;43.168;44.812;2022-12-18T17:59:26;8.25;8.25;7.00
61542;PMS5003;47414;43.168;44.812;2022-12-18T18:04:27;5.75;5.75;3.00
61542;PMS5003;47414;43.168;44.812;2022-12-18T18:09:27;9.00;9.00;6.50
61542;PMS5003;47414;43.168;44.812;2022-12-18T18:14:29;8.75;6.00;4.75
61542;PMS5003;47414;43.168;44.812;2022-12-18T18:19:30;6.50;6.50;4.75
61542;PMS5003;47414;43.168;44.812;2022-12-18T18:24:31;5.00;5.00;3.50
61542;PMS5003;47414;43.168;44.812;2022-12-18T18:29:35;6.50;6.50;4.50
61542;PMS5003;47414;43.168;44.812;2022-12-18T18:34:35;4.00;4.00;3.00
61542;PMS5003;47414;43.168;44.812;2022-12-18T18:39:41;9.00;8.00;4.50
61542;PMS5003;47414;43.168;44.812;2022-12-18T18:44:43;8.25;8.25;5.00
61542;PMS5003;47414;43.168;44.812;2022-12-18T18:49:44;6.25;6.25;3.50
61542;PMS5003;47414;43.168;44.812;2022-12-18T18:54:45;8.00;8.00;5.75
61542;PMS5003;47414;43.168;44.812;2022-12-18T18:59:47;5.00;5.00;3.00
61542;PMS5003;47414;43.168;44.812;2022-12-18T19:04:48;8.00;5.50;3.50
61542;PMS5003;47414;43.168;44.812;2022-12-18T19:09:48;3.00;3.00;2.75
61542;PMS5003;47414;43.168;44.812;2022-12-18T19:14:52;8.00;5.00;3.00
61542;PMS5003;47414;43.168;44.812;2022-12-18T19:19:52;5.75;5.00;3.75
61542;PMS5003;47414;43.168;44.812;2022-12-18T19:24:53;6.00;5.50;4.00
61542;PMS5003;47414;43.168;44.812;2022-12-18T19:29:55;7.75;7.50;4.00
61542;PMS5003;47414;43.168;44.812;2022-12-18T19:34:55;5.00;5.00;3.00
61542;PMS5003;47414;43.168;44.812;2022-12-18T19:39:56;5.50;5.50;4.00
61542;PMS5003;47414;43.168;44.812;2022-12-18T19:44:58;5.00;4.25;3.00
61542;PMS5003;47414;43.168;44.812;2022-12-18T19:49:58;7.25;6.00;4.75
61542;PMS5003;47414;43.168;44.812;2022-12-18T19:54:59;4.75;4.75;4.00
61542;PMS5003;47414;43.168;44.812;2022-12-18T20:00:01;5.50;5.00;3.00
61542;PMS5003;47414;43.168;44.812;2022-12-18T20:05:02;4.75;4.00;3.00
61542;PMS5003;47414;43.168;44.812;2022-12-18T20:10:03;7.00;7.00;5.00
61542;PMS5003;47414;43.168;44.812;2022-12-18T20:15:05;5.50;5.50;4.00
61542;PMS5003;47414;43.168;44.812;2022-12-18T20:20:06;7.00;7.00;5.00
61542;PMS5003;47414;43.168;44.812;2022-12-18T20:25:07;8.00;8.00;5.00
61542;PMS5003;47414;43.168;44.812;2022-12-18T20:30:10;4.00;4.00;4.00
61542;PMS5003;47414;43.168;44.812;2022-12-18T20:35:11;3.25;3.25;2.00
61542;PMS5003;47414;43.168;44.812;2022-12-18T20:40:11;4.00;4.00;3.00
61542;PMS5003;47414;43.168;44.812;2022-12-18T20:45:13;6.00;6.00;4.00
61542;PMS5003;47414;43.168;44.812;2022-12-18T20:50:14;7.75;7.00;4.25
61542;PMS5003;47414;43.168;44.812;2022-12-18T20:55:14;3.75;3.75;2.00
61542;PMS5003;47414;43.168;44.812;2022-12-18T21:00:17;6.00;6.00;4.50
61542;PMS5003;47414;43.168;44.812;2022-12-18T21:05:17;5.25;5.25;4.50
61542;PMS5003;47414;43.168;44.812;2022-12-18T21:10:18;7.50;7.50;4.00
61542;PMS5003;47414;43.168;44.812;2022-12-18T21:15:20;5.00;4.00;2.25
61542;PMS5003;47414;43.168;44.812;2022-12-18T21:20:20;7.00;5.00;3.75
61542;PMS5003;47414;43.168;44.812;2022-12-18T21:25:21;6.50;6.25;4.75
61542;PMS5003;47414;43.168;44.812;2022-12-18T21:30:23;8.00;7.75;4.25
61542;PMS5003;47414;43.168;44.812;2022-12-18T21:35:23;4.00;4.00;3.25
61542;PMS5003;47414;43.168;44.812;2022-12-18T21:40:24;4.25;4.00;3.00
61542;PMS5003;47414;43.168;44.812;2022-12-18T21:45:26;2.50;2.00;1.50
61542;PMS5003;47414;43.168;44.812;2022-12-18T21:50:26;4.00;4.00;3.00
61542;PMS5003;47414;43.168;44.812;2022-12-18T21:55:26;4.00;4.00;3.00
61542;PMS5003;47414;43.168;44.812;2022-12-18T22:00:28;5.00;4.00;3.00
61542;PMS5003;47414;43.168;44.812;2022-12-18T22:05:29;4.00;4.00;2.00
61542;PMS5003;47414;43.168;44.812;2022-12-18T22:10:29;5.00;4.75;3.00
61542;PMS5003;47414;43.168;44.812;2022-12-18T22:15:31;3.00;3.00;2.00
61542;PMS5003;47414;43.168;44.812;2022-12-18T22:20:32;5.00;5.00;3.50
61542;PMS5003;47414;43.168;44.812;2022-12-18T22:25:33;5.00;5.00;2.25
61542;PMS5003;47414;43.168;44.812;2022-12-18T22:30:35;2.00;2.00;2.00
61542;PMS5003;47414;43.168;44.812;2022-12-18T22:35:35;3.00;3.00;3.00
61542;PMS5003;47414;43.168;44.812;2022-12-18T22:40:36;3.25;3.25;2.50
61542;PMS5003;47414;43.168;44.812;2022-12-18T22:45:37;2.00;2.00;2.00
61542;PMS5003;47414;43.168;44.812;2022-12-18T22:50:38;3.00;3.00;2.00
61542;PMS5003;47414;43.168;44.812;2022-12-18T22:55:38;4.75;4.75;3.00
61542;PMS5003;47414;43.168;44.812;2022-12-18T23:00:40;3.75;3.75;2.00
61542;PMS5003;47414;43.168;44.812;2022-12-18T23:05:41;2.00;2.00;2.00
61542;PMS5003;47414;43.168;44.812;2022-12-18T23:10:41;4.00;4.00;2.75
61542;PMS5003;47414;43.168;44.812;2022-12-18T23:15:43;3.25;3.25;2.00
61542;PMS5003;47414;43.168;44.812;2022-12-18T23:20:44;2.00;2.00;1.00
61542;PMS5003;47414;43.168;44.812;2022-12-18T23:25:44;4.00;3.75;3.00
61542;PMS5003;47414;43.168;44.812;2022-12-18T23:30:46;1.00;1.00;1.00
61542;PMS5003;47414;43.168;44.812;2022-12-18T23:35:47;4.75;4.75;3.00
61542;PMS5003;47414;43.168;44.812;2022-12-18T23:40:47;4.00;3.00;2.00
61542;PMS5003;47414;43.168;44.812;2022-12-18T23:45:49;3.00;3.00;2.00
61542;PMS5003;47414;43.168;44.812;2022-12-18T23:50:50;3.00;3.00;3.00
61542;PMS5003;47414;43.168;44.812;2022-12-18T23:55:51;4.00;3.00;2.00
